Time;durP1;ratioP1;P1;durP2;ratioP2;P2;SDS_P1;SDS_P2;PMS_P1;PMS_P2;Temp;Humidity;BMP_temperature;BMP_pressure;BME280_temperature;BME280_humidity;BME280_pressure;Samples;Min_cycle;Max_cycle;Signal;HPM_P1;HPM_P2
2021/03/13 00:00:58;;;;;;;17.38;8.35;;;;;;;4.21;60.94;99120.03;5101946;28;20415;-74
2021/03/13 00:03:24;;;;;;;20.10;12.35;;;;;;;4.19;60.95;99112.28;5100614;28;20047;-74
2021/03/13 00:05:52;;;;;;;25.80;12.98;;;;;;;4.21;61.00;99104.34;5104486;28;20062;-71
2021/03/13 00:08:19;;;;;;;18.88;10.88;;;;;;;4.19;60.88;99111.47;5103742;28;20070;-71
2021/03/13 00:10:47;;;;;;;24.27;11.60;;;;;;;4.19;60.85;99112.28;5103248;28;20043;-73
2021/03/13 00:13:13;;;;;;;18.42;9.07;;;;;;;4.18;60.97;99102.78;5104791;28;20604;-72
2021/03/13 00:15:41;;;;;;;17.30;9.60;;;;;;;4.17;61.04;99103.72;5105143;27;20051;-74
2021/03/13 00:18:08;;;;;;;21.25;11.15;;;;;;;4.19;60.54;99098.38;5105582;28;20055;-71
2021/03/13 00:20:36;;;;;;;18.42;9.82;;;;;;;4.19;60.72;99103.63;5103723;28;20079;-73
2021/03/13 00:23:04;;;;;;;19.75;9.88;;;;;;;4.20;60.68;99095.69;5106616;28;20148;-74
2021/03/13 00:25:31;;;;;;;14.70;8.80;;;;;;;4.20;60.72;99100.09;5103225;28;20043;-74
2021/03/13 00:27:58;;;;;;;18.30;10.43;;;;;;;4.21;60.59;99093.91;5104072;28;20065;-71
2021/03/13 00:30:26;;;;;;;19.13;10.35;;;;;;;4.21;60.48;99096.50;5105622;28;20043;-71
2021/03/13 00:32:54;;;;;;;20.40;9.07;;;;;;;4.22;60.55;99087.75;5105197;28;20127;-75
2021/03/13 00:35:22;;;;;;;16.55;10.35;;;;;;;4.23;60.48;99086.78;5103321;28;20054;-71
2021/03/13 00:37:49;;;;;;;18.85;10.45;;;;;;;4.22;60.25;99083.34;5105017;28;20047;-73
2021/03/13 00:40:19;;;;;;;22.58;8.68;;;;;;;4.22;60.65;99082.53;5105462;28;20040;-73
2021/03/13 00:42:47;;;;;;;20.33;10.43;;;;;;;4.21;60.18;99081.69;5104506;28;20054;-72
2021/03/13 00:45:16;;;;;;;21.70;10.20;;;;;;;4.20;60.20;99074.78;5102437;28;20051;-73
2021/03/13 00:47:44;;;;;;;19.42;9.85;;;;;;;4.19;60.38;99080.09;5104194;28;20103;-72
2021/03/13 00:50:13;;;;;;;16.75;10.20;;;;;;;4.16;60.39;99072.44;5103984;28;20054;-72
2021/03/13 00:52:40;;;;;;;19.48;10.90;;;;;;;4.13;60.28;99070.06;5105702;28;20058;-71
2021/03/13 00:55:10;;;;;;;19.10;11.07;;;;;;;4.11;60.46;99067.53;5107870;28;20102;-72
2021/03/13 00:57:38;;;;;;;20.00;9.20;;;;;;;4.09;60.44;99069.41;5072591;28;20093;-74
2021/03/13 01:00:06;;;;;;;21.60;12.75;;;;;;;4.08;60.49;99064.28;5107604;28;20172;-72
2021/03/13 01:02:32;;;;;;;20.05;10.30;;;;;;;4.09;60.11;99063.31;5056066;28;20628;-71
2021/03/13 01:04:59;;;;;;;21.02;10.90;;;;;;;4.08;60.10;99062.50;5107171;28;20057;-72
2021/03/13 01:07:26;;;;;;;24.33;11.52;;;;;;;4.07;60.18;99052.16;5075196;28;20083;-72
2021/03/13 01:09:53;;;;;;;22.40;11.10;;;;;;;4.05;60.18;99052.25;5110044;28;20047;-75
2021/03/13 01:12:19;;;;;;;21.95;12.27;;;;;;;4.04;60.11;99044.53;5114085;28;20075;-75
2021/03/13 01:14:47;;;;;;;20.55;9.70;;;;;;;4.01;60.22;99043.75;5108164;28;20047;-76
2021/03/13 01:17:14;;;;;;;20.08;11.07;;;;;;;4.00;60.27;99036.88;5109488;28;20059;-77
2021/03/13 01:19:40;;;;;;;29.85;12.85;;;;;;;3.98;60.04;99041.38;5109801;28;20044;-73
2021/03/13 01:22:06;;;;;;;22.90;10.77;;;;;;;3.96;60.10;99040.63;5111105;28;20043;-70
2021/03/13 01:24:34;;;;;;;18.88;10.48;;;;;;;3.94;59.99;99044.28;5106137;28;20067;-73
2021/03/13 01:27:00;;;;;;;20.55;11.63;;;;;;;3.92;60.18;99043.53;5107180;28;20626;-72
2021/03/13 01:29:27;;;;;;;25.95;11.10;;;;;;;3.90;60.28;99042.78;5108931;28;20054;-74
2021/03/13 01:31:54;;;;;;;23.05;10.82;;;;;;;3.90;60.04;99041.00;5108865;28;20063;-73
2021/03/13 01:34:21;;;;;;;17.73;11.48;;;;;;;3.88;60.09;99031.63;5097166;28;20066;-72
2021/03/13 01:36:49;;;;;;;19.70;9.77;;;;;;;3.86;59.98;99038.72;5069629;28;20147;-72
2021/03/13 01:39:15;;;;;;;18.58;9.25;;;;;;;3.85;60.01;99030.03;5088123;28;20039;-71
2021/03/13 01:41:42;;;;;;;23.52;9.40;;;;;;;3.85;60.13;99035.25;5087462;28;20040;-73
2021/03/13 01:44:08;;;;;;;22.33;11.00;;;;;;;3.85;59.95;99024.78;5068103;28;20070;-73
2021/03/13 01:46:35;;;;;;;21.52;11.25;;;;;;;3.84;59.93;99020.53;5052254;28;20052;-71
2021/03/13 01:49:02;;;;;;;24.70;11.23;;;;;;;3.83;60.08;99011.88;5089278;28;20109;-71
2021/03/13 01:51:29;;;;;;;19.83;9.40;;;;;;;3.87;59.83;99019.47;5087923;28;20052;-72
2021/03/13 01:53:55;;;;;;;21.70;9.32;;;;;;;3.87;59.68;99022.09;5086721;28;20070;-72
2021/03/13 01:56:23;;;;;;;25.25;9.82;;;;;;;3.87;59.65;99017.72;5086704;28;20105;-74
2021/03/13 01:58:49;;;;;;;23.30;12.68;;;;;;;3.89;59.82;99018.47;5086566;28;20048;-71
2021/03/13 02:01:15;;;;;;;23.80;11.65;;;;;;;3.89;59.75;99013.25;5087547;28;20499;-73
2021/03/13 02:03:42;;;;;;;19.60;10.65;;;;;;;3.87;59.64;99017.72;5085244;28;20138;-75
2021/03/13 02:06:10;;;;;;;22.85;11.15;;;;;;;3.86;59.71;99005.59;5101788;28;20043;-72
2021/03/13 02:08:47;;;;;;;23.25;11.13;;;;;;;3.88;59.59;99003.72;5108914;28;20131;-76
2021/03/13 02:11:21;;;;;;;18.45;11.00;;;;;;;3.86;59.70;98997.75;5107950;28;20063;-72
2021/03/13 02:13:52;;;;;;;20.83;10.20;;;;;;;3.88;59.80;99001.09;5106400;28;20048;-72
2021/03/13 02:16:26;;;;;;;19.73;10.32;;;;;;;3.91;59.48;99005.31;5107215;28;20698;-74
2021/03/13 02:19:20;;;;;;;27.00;13.02;;;;;;;3.88;59.51;99003.72;5107043;28;20487;-72
2021/03/13 02:21:56;;;;;;;19.75;9.73;;;;;;;3.89;59.76;99000.19;5107049;28;20051;-71
2021/03/13 02:24:59;;;;;;;19.10;10.65;;;;;;;3.88;59.70;98995.03;5106077;28;20653;-73
2021/03/13 02:27:27;;;;;;;20.75;9.80;;;;;;;3.82;59.42;98980.63;5042381;28;20049;-73
2021/03/13 02:29:59;;;;;;;24.13;10.73;;;;;;;3.85;59.55;98987.41;5043081;28;20071;-73
2021/03/13 02:32:37;;;;;;;22.77;12.38;;;;;;;3.86;59.77;98989.09;5043298;28;20072;-74
2021/03/13 02:35:10;;;;;;;18.65;10.50;;;;;;;3.88;59.41;98992.44;5041503;28;20097;-71
2021/03/13 02:37:42;;;;;;;21.55;11.07;;;;;;;3.89;59.55;98992.34;5043410;28;20071;-72
2021/03/13 02:40:10;;;;;;;21.75;10.88;;;;;;;3.90;59.32;98987.94;5043327;28;20045;-74
2021/03/13 02:42:43;;;;;;;19.23;11.00;;;;;;;3.92;59.44;98983.44;5043063;28;20049;-71
2021/03/13 02:45:13;;;;;;;25.83;13.57;;;;;;;3.92;59.46;98973.84;5045561;28;20049;-75
2021/03/13 02:47:41;;;;;;;19.33;10.27;;;;;;;3.94;59.28;98964.16;5045419;28;20041;-74
2021/03/13 02:50:09;;;;;;;21.77;10.20;;;;;;;3.92;59.22;98965.16;5044990;28;20459;-73
2021/03/13 02:52:37;;;;;;;25.65;12.32;;;;;;;3.94;59.15;98964.16;5043420;28;20045;-72
2021/03/13 02:55:07;;;;;;;22.05;10.93;;;;;;;3.96;59.11;98964.88;5042086;28;20057;-72
2021/03/13 02:57:35;;;;;;;20.23;10.68;;;;;;;4.01;58.99;98968.00;5044508;28;20045;-73
2021/03/13 03:00:05;;;;;;;19.52;9.55;;;;;;;4.05;59.21;98968.63;5043364;28;20164;-72
2021/03/13 03:02:34;;;;;;;20.10;10.82;;;;;;;4.11;58.72;98957.78;5042586;28;20121;-71
2021/03/13 03:05:02;;;;;;;17.23;10.43;;;;;;;4.18;58.73;98959.06;5100788;28;20151;-72
2021/03/13 03:07:29;;;;;;;17.80;9.25;;;;;;;4.25;58.55;98948.19;5106270;28;20044;-74
2021/03/13 03:09:56;;;;;;;19.60;10.23;;;;;;;4.30;58.60;98949.53;5106417;28;20048;-71
2021/03/13 03:12:25;;;;;;;22.83;11.10;;;;;;;4.34;58.45;98951.03;5106396;28;20429;-72
2021/03/13 03:14:53;;;;;;;18.63;9.40;;;;;;;4.39;58.50;98941.09;5106641;28;20043;-71
2021/03/13 03:17:21;;;;;;;20.73;11.23;;;;;;;4.45;58.21;98941.59;5106065;28;20048;-71
2021/03/13 03:19:54;;;;;;;20.52;10.25;;;;;;;4.51;58.14;98943.81;5108089;28;20039;-71
2021/03/13 03:22:21;;;;;;;15.15;8.27;;;;;;;4.58;57.92;98947.69;5107314;28;20134;-71
2021/03/13 03:24:49;;;;;;;15.32;9.05;;;;;;;4.64;57.92;98943.78;5107269;28;20044;-72
2021/03/13 03:27:15;;;;;;;22.63;9.77;;;;;;;4.69;57.66;98937.31;5106987;28;20043;-71
2021/03/13 03:29:42;;;;;;;17.33;9.35;;;;;;;4.75;57.70;98931.66;5104867;28;20105;-72
2021/03/13 03:32:08;;;;;;;19.98;9.15;;;;;;;4.78;57.42;98933.22;5106087;28;20058;-72
2021/03/13 03:34:35;;;;;;;22.00;10.05;;;;;;;4.76;57.34;98924.66;5105246;28;20164;-72
2021/03/13 03:37:06;;;;;;;22.05;9.18;;;;;;;4.79;57.63;98914.81;5087432;28;20043;-72
2021/03/13 03:39:34;;;;;;;15.30;7.78;;;;;;;4.81;57.46;98926.91;5105455;28;20040;-71
2021/03/13 03:42:04;;;;;;;19.70;8.20;;;;;;;4.87;57.22;98918.66;5105395;28;20050;-71
2021/03/13 03:44:39;;;;;;;17.58;7.82;;;;;;;4.94;57.17;98919.91;5105428;28;20043;-72
2021/03/13 03:47:07;;;;;;;16.70;8.60;;;;;;;5.01;56.90;98921.13;5105008;28;20493;-72
2021/03/13 03:49:34;;;;;;;19.08;9.13;;;;;;;5.05;56.70;98914.72;5083645;28;20044;-71
2021/03/13 03:52:02;;;;;;;13.90;6.88;;;;;;;5.11;56.58;98922.16;5066821;28;20044;-72
2021/03/13 03:54:36;;;;;;;20.38;10.63;;;;;;;5.13;56.56;98915.03;5049178;28;20135;-70
2021/03/13 03:57:07;;;;;;;20.48;10.73;;;;;;;5.14;56.49;98901.00;5050587;28;20101;-72
2021/03/13 03:59:35;;;;;;;18.17;9.32;;;;;;;5.09;56.56;98897.84;5085666;28;20052;-71
2021/03/13 04:02:02;;;;;;;19.83;9.48;;;;;;;5.00;56.51;98898.53;5085379;28;20040;-72
2021/03/13 04:04:30;;;;;;;12.32;8.05;;;;;;;4.95;56.75;98896.25;5083136;28;20439;-71
2021/03/13 04:06:58;;;;;;;15.82;8.10;;;;;;;4.95;56.77;98884.91;5084425;28;20056;-71
2021/03/13 04:09:27;;;;;;;18.80;9.43;;;;;;;4.93;56.94;98881.59;5085307;28;20092;-72
2021/03/13 04:11:56;;;;;;;18.23;7.80;;;;;;;4.91;56.84;98873.00;5067999;28;20102;-72
2021/03/13 04:14:25;;;;;;;19.17;8.30;;;;;;;4.90;56.83;98874.81;5084836;28;20073;-72
2021/03/13 04:16:53;;;;;;;19.52;8.65;;;;;;;4.91;56.54;98873.00;5085848;28;20054;-73
2021/03/13 04:19:20;;;;;;;18.80;10.07;;;;;;;4.95;56.50;98864.00;5066853;28;20044;-70
2021/03/13 04:21:47;;;;;;;17.88;9.70;;;;;;;5.01;56.42;98863.56;5083553;28;20040;-73
2021/03/13 04:24:15;;;;;;;17.48;7.43;;;;;;;5.09;56.26;98865.63;5084744;28;20074;-71
2021/03/13 04:26:45;;;;;;;17.92;8.68;;;;;;;5.14;56.02;98864.34;5084985;28;20704;-71
2021/03/13 04:29:14;;;;;;;17.40;9.10;;;;;;;5.19;55.89;98868.44;5090344;28;20052;-71
2021/03/13 04:31:42;;;;;;;16.63;7.90;;;;;;;5.22;55.68;98865.56;5089981;28;20076;-71
2021/03/13 04:34:10;;;;;;;22.15;8.93;;;;;;;5.22;55.72;98860.34;5087518;28;20058;-72
2021/03/13 04:36:39;;;;;;;13.43;7.28;;;;;;;5.24;55.82;98861.06;5088531;28;20048;-72
2021/03/13 04:39:07;;;;;;;17.50;8.38;;;;;;;5.26;55.66;98851.34;5090374;28;20044;-73
2021/03/13 04:41:35;;;;;;;17.83;8.35;;;;;;;5.28;55.37;98850.25;5072056;28;20048;-73
2021/03/13 04:44:03;;;;;;;19.58;9.27;;;;;;;5.35;55.18;98851.47;5090439;28;20043;-74
2021/03/13 04:46:35;;;;;;;22.83;11.02;;;;;;;5.40;55.14;98848.50;5088105;28;20040;-73
2021/03/13 04:49:04;;;;;;;20.25;10.02;;;;;;;5.39;55.31;98844.25;5089943;28;20055;-74
2021/03/13 04:51:32;;;;;;;16.88;9.18;;;;;;;5.39;55.03;98841.63;5089154;28;20036;-74
2021/03/13 04:53:58;;;;;;;21.50;9.70;;;;;;;5.44;55.05;98839.50;5071131;28;20048;-71
2021/03/13 04:56:25;;;;;;;24.33;11.43;;;;;;;5.46;55.04;98837.59;5036430;28;20097;-74
2021/03/13 04:58:52;;;;;;;19.67;9.35;;;;;;;5.49;54.90;98831.28;5073167;28;20731;-73
2021/03/13 05:01:19;;;;;;;24.52;10.70;;;;;;;5.52;54.99;98831.91;5070307;28;20051;-74
2021/03/13 05:03:49;;;;;;;15.52;9.63;;;;;;;5.55;54.84;98826.44;5068685;28;20134;-73
2021/03/13 05:06:16;;;;;;;19.80;10.20;;;;;;;5.57;54.79;98841.22;5088651;28;20051;-74
2021/03/13 05:08:43;;;;;;;21.83;10.45;;;;;;;5.55;54.73;98831.69;5088805;28;20048;-74
2021/03/13 05:11:11;;;;;;;23.05;9.38;;;;;;;5.57;54.52;98838.59;5087738;28;20048;-72
2021/03/13 05:13:39;;;;;;;25.90;10.15;;;;;;;5.58;54.33;98830.59;5073076;28;20036;-73
2021/03/13 05:16:06;;;;;;;22.02;11.25;;;;;;;5.60;54.47;98831.34;5088535;28;20496;-71
2021/03/13 05:18:33;;;;;;;23.65;11.00;;;;;;;5.62;54.52;98832.06;5074286;28;20048;-74
2021/03/13 05:21:01;;;;;;;21.90;11.23;;;;;;;5.63;54.33;98838.94;5069967;28;20487;-74
2021/03/13 05:23:28;;;;;;;21.17;10.15;;;;;;;5.65;54.48;98836.22;5089015;28;20104;-73
2021/03/13 05:25:55;;;;;;;17.35;11.13;;;;;;;5.61;54.47;98845.28;5070390;28;20048;-73
2021/03/13 05:28:22;;;;;;;25.00;11.70;;;;;;;5.60;54.63;98854.06;5070794;28;20048;-71
2021/03/13 05:30:49;;;;;;;23.65;11.82;;;;;;;5.62;54.45;98849.53;5108089;28;20052;-72
2021/03/13 05:33:15;;;;;;;23.85;12.52;;;;;;;5.63;54.42;98857.28;5107558;28;20048;-71
2021/03/13 05:35:42;;;;;;;22.52;10.60;;;;;;;5.67;54.41;98866.63;5089191;28;20399;-71
2021/03/13 05:38:10;;;;;;;27.33;11.77;;;;;;;5.71;54.41;98872.47;5108949;28;20138;-73
2021/03/13 05:40:37;;;;;;;24.67;11.45;;;;;;;5.78;54.25;98886.78;5109008;28;20043;-72
2021/03/13 05:43:03;;;;;;;19.30;11.75;;;;;;;5.82;54.02;98888.19;5108412;28;20490;-74
2021/03/13 05:45:31;;;;;;;27.50;12.82;;;;;;;5.86;54.30;98884.41;5107405;28;20035;-73
2021/03/13 05:47:59;;;;;;;25.92;12.75;;;;;;;5.88;53.83;98889.53;5087424;28;20048;-77
2021/03/13 05:50:28;;;;;;;20.42;11.57;;;;;;;5.88;53.94;98898.22;5088696;28;20067;-73
2021/03/13 05:52:56;;;;;;;25.38;11.65;;;;;;;5.87;54.08;98904.41;5087103;28;20059;-73
2021/03/13 05:55:24;;;;;;;26.52;13.93;;;;;;;5.82;54.64;98906.53;5089171;28;20051;-75
2021/03/13 05:57:52;;;;;;;24.58;14.73;;;;;;;5.64;55.53;98910.53;5091209;28;20055;-76
2021/03/13 06:00:20;;;;;;;23.38;13.20;;;;;;;5.44;56.58;98910.22;5088784;28;20048;-72
2021/03/13 06:02:47;;;;;;;30.23;12.38;;;;;;;5.30;57.61;98916.44;5071675;28;20411;-70
2021/03/13 06:05:15;;;;;;;24.00;12.30;;;;;;;5.22;58.33;98923.16;5087468;28;20049;-73
2021/03/13 06:07:43;;;;;;;21.55;10.85;;;;;;;5.14;59.09;98919.31;5088370;28;20056;-72
2021/03/13 06:10:14;;;;;;;18.98;9.55;;;;;;;5.11;59.10;98924.78;5087169;28;20504;-74
2021/03/13 06:12:42;;;;;;;21.45;11.50;;;;;;;5.02;60.35;98925.41;5087327;28;20121;-77
2021/03/13 06:15:12;;;;;;;35.92;18.58;;;;;;;4.99;60.37;98923.03;5088082;28;20051;-76
2021/03/13 06:17:54;;;;;;;36.35;16.00;;;;;;;5.01;60.36;98931.59;5071356;28;20101;-76
2021/03/13 06:20:29;;;;;;;20.70;9.63;;;;;;;4.94;60.89;98931.19;5068589;28;20044;-72
2021/03/13 06:23:01;;;;;;;16.15;9.43;;;;;;;4.91;60.89;98936.63;5085429;28;20048;-73
2021/03/13 06:25:29;;;;;;;25.48;13.85;;;;;;;4.85;61.11;98942.31;5087726;28;20123;-72
2021/03/13 06:28:06;;;;;;;26.73;13.95;;;;;;;4.78;61.54;98941.06;5086152;28;20054;-72
2021/03/13 06:30:35;;;;;;;23.80;13.13;;;;;;;4.80;61.36;98944.41;5067382;28;20079;-72
2021/03/13 06:33:21;;;;;;;25.90;15.15;;;;;;;4.80;61.85;98949.63;5085022;28;20048;-73
2021/03/13 06:35:50;;;;;;;18.50;10.13;;;;;;;4.81;61.76;98948.72;5069046;28;20044;-74
2021/03/13 06:38:23;;;;;;;24.75;10.43;;;;;;;4.78;61.85;98946.28;5097813;28;20055;-71
2021/03/13 06:40:52;;;;;;;18.17;8.57;;;;;;;4.77;61.79;98948.09;5087115;28;20048;-71
2021/03/13 06:43:27;;;;;;;22.23;10.68;;;;;;;4.77;61.96;98934.16;5086627;28;20063;-72
2021/03/13 06:46:07;;;;;;;19.88;9.20;;;;;;;4.83;62.15;98938.97;5085066;28;20424;-73
2021/03/13 06:48:37;;;;;;;14.00;8.20;;;;;;;4.85;62.17;98937.06;5087504;28;20496;-72
2021/03/13 06:51:18;;;;;;;16.80;7.22;;;;;;;4.94;62.41;98935.59;5084823;28;20071;-73
2021/03/13 06:53:46;;;;;;;12.73;8.02;;;;;;;4.92;62.25;98929.63;5069593;28;20055;-76
2021/03/13 06:56:13;;;;;;;12.55;6.88;;;;;;;4.94;62.42;98935.59;5086138;28;20637;-76
2021/03/13 06:58:42;;;;;;;16.42;7.93;;;;;;;4.96;62.31;98934.53;5086405;28;20048;-75
2021/03/13 07:01:09;;;;;;;19.63;11.73;;;;;;;4.98;62.31;98932.63;5084980;28;20036;-75
2021/03/13 07:03:50;;;;;;;17.85;8.98;;;;;;;5.05;62.49;98938.28;5050120;28;20104;-72
2021/03/13 07:06:20;;;;;;;12.18;7.22;;;;;;;4.97;62.80;98944.06;5086603;28;20376;-75
2021/03/13 07:08:48;;;;;;;17.23;7.60;;;;;;;4.98;62.69;98942.28;5088083;28;20323;-75
2021/03/13 07:11:21;;;;;;;12.80;7.07;;;;;;;5.05;62.89;98934.84;5087747;28;20044;-75
2021/03/13 07:13:53;;;;;;;11.15;7.43;;;;;;;5.11;62.73;98927.41;5075110;28;20055;-74
2021/03/13 07:16:31;;;;;;;17.00;9.63;;;;;;;5.16;62.72;98935.72;5086774;28;20560;-72
2021/03/13 07:19:02;;;;;;;13.60;7.53;;;;;;;5.26;62.78;98946.41;5094385;28;20038;-76
2021/03/13 07:21:32;;;;;;;11.95;7.45;;;;;;;5.32;62.47;98950.34;5110732;28;20075;-78
2021/03/13 07:24:02;;;;;;;15.70;7.22;;;;;;;5.33;62.55;98952.00;5088629;28;20135;-72
2021/03/13 07:26:35;;;;;;;11.27;8.05;;;;;;;5.34;62.58;98941.44;5107083;28;20067;-72
2021/03/13 07:29:04;;;;;;;11.23;8.48;;;;;;;5.44;62.57;98944.25;5108553;28;20047;-71
2021/03/13 07:31:40;;;;;;;15.73;7.80;;;;;;;5.60;62.45;98943.13;5126506;28;20098;-78
2021/03/13 07:34:15;;;;;;;9.55;6.60;;;;;;;5.74;62.08;98943.81;5109575;28;20044;-80
2021/03/13 07:36:49;;;;;;;10.23;6.25;;;;;;;5.92;61.83;98940.75;5114247;28;20044;-80
2021/03/13 07:39:18;;;;;;;;;;;;;;;6.13;61.48;98936.56;5107684;28;20173;-73
2021/03/13 07:41:53;;;;;;;11.18;6.60;;;;;;;5.99;61.81;98938.53;5103920;28;20315;-71
2021/03/13 07:44:22;;;;;;;8.25;5.43;;;;;;;5.92;62.22;98943.38;5092479;28;20193;-74
2021/03/13 07:46:51;;;;;;;9.82;6.28;;;;;;;5.87;62.57;98956.84;5109850;28;20043;-71
2021/03/13 07:49:18;;;;;;;10.43;6.93;;;;;;;6.03;62.44;98951.31;5111158;28;20032;-75
2021/03/13 07:51:50;;;;;;;8.07;4.78;;;;;;;6.19;62.11;98937.03;5111978;28;20089;-79
2021/03/13 07:54:18;;;;;;;12.43;5.65;;;;;;;6.25;62.27;98933.97;5112855;28;20048;-76
2021/03/13 07:56:49;;;;;;;12.68;5.93;;;;;;;6.36;62.12;98944.47;5112639;28;20093;-76
2021/03/13 07:59:43;;;;;;;13.88;7.53;;;;;;;6.50;62.40;98946.88;5114120;28;20040;-72
2021/03/13 08:02:37;;;;;;;17.73;6.75;;;;;;;6.60;62.21;98933.88;5113515;28;20036;-72
2021/03/13 08:05:08;;;;;;;15.30;6.35;;;;;;;6.57;62.14;98934.16;5113065;28;20440;-73
2021/03/13 08:07:57;;;;;;;11.25;6.13;;;;;;;6.62;62.69;98929.34;5115991;28;20086;-78
2021/03/13 08:10:49;;;;;;;10.48;5.72;;;;;;;6.65;62.62;98939.63;5114566;28;20134;-73
2021/03/13 08:13:48;;;;;;;14.48;7.78;;;;;;;6.60;62.85;98939.13;5111567;28;20044;-70
2021/03/13 08:16:19;;;;;;;9.63;5.80;;;;;;;6.61;62.78;98930.31;5099761;28;20040;-70
2021/03/13 08:18:47;;;;;;;14.02;6.63;;;;;;;6.69;62.98;98927.09;5102761;28;20127;-73
2021/03/13 08:21:41;;;;;;;8.80;5.32;;;;;;;6.86;62.96;98931.88;5114742;28;20067;-75
2021/03/13 08:24:09;;;;;;;7.43;3.72;;;;;;;7.00;62.59;98924.69;5114758;28;20035;-74
2021/03/13 08:27:06;;;;;;;8.18;5.47;;;;;;;7.25;62.72;98918.31;5116143;28;20039;-74
2021/03/13 08:30:00;;;;;;;11.35;5.10;;;;;;;7.48;62.23;98913.84;5114553;28;20096;-75
2021/03/13 08:32:59;;;;;;;11.30;6.22;;;;;;;7.62;62.32;98918.00;5114268;28;20040;-75
2021/03/13 08:35:50;;;;;;;11.82;6.75;;;;;;;7.82;62.08;98911.91;5039781;28;20049;-72
2021/03/13 08:38:20;;;;;;;11.20;5.20;;;;;;;8.06;61.67;98915.28;5034435;28;20046;-72
2021/03/13 08:40:53;;;;;;;13.55;7.10;;;;;;;8.20;61.72;98913.16;5033518;28;20080;-69
2021/03/13 08:43:41;;;;;;;8.20;5.53;;;;;;;8.36;61.24;98910.06;5040108;28;20050;-71
2021/03/13 08:46:47;;;;;;;9.55;5.10;;;;;;;8.48;61.10;98912.63;5039302;28;20049;-74
2021/03/13 08:49:49;;;;;;;9.57;4.57;;;;;;;8.72;60.87;98921.06;5035132;28;20144;-73
2021/03/13 08:52:33;;;;;;;14.75;7.65;;;;;;;8.74;60.61;98913.03;5044110;28;20036;-76
2021/03/13 08:55:03;;;;;;;10.90;6.78;;;;;;;8.84;60.43;98916.56;5045719;28;20287;-72
2021/03/13 08:57:48;;;;;;;12.30;7.35;;;;;;;9.10;60.18;98916.06;5043830;28;20045;-71
2021/03/13 09:00:19;;;;;;;13.52;7.70;;;;;;;9.45;59.68;98914.75;5019730;28;20049;-74
2021/03/13 09:02:49;;;;;;;13.45;7.65;;;;;;;9.73;59.20;98910.47;4979759;28;20054;-70
2021/03/13 09:05:22;;;;;;;11.65;6.57;;;;;;;10.02;58.75;98899.06;4981095;28;20060;-73
2021/03/13 09:07:55;;;;;;;13.70;7.25;;;;;;;10.33;57.95;98907.63;5009591;28;20512;-70
2021/03/13 09:10:22;;;;;;;20.05;6.93;;;;;;;10.64;56.82;98892.41;5027753;28;20111;-69
2021/03/13 09:12:50;;;;;;;13.75;5.85;;;;;;;10.72;56.55;98904.88;5074320;28;20052;-70
2021/03/13 09:15:17;;;;;;;10.75;7.00;;;;;;;10.69;56.64;98897.25;5084759;28;20044;-71
2021/03/13 09:17:44;;;;;;;12.85;6.75;;;;;;;10.59;56.62;98904.34;5082629;28;20078;-69
2021/03/13 09:20:13;;;;;;;11.80;6.10;;;;;;;10.49;56.37;98905.22;5084579;28;20040;-72
2021/03/13 09:22:41;;;;;;;10.02;7.47;;;;;;;10.43;56.18;98895.25;5086091;28;20075;-74
2021/03/13 09:25:12;;;;;;;11.32;6.60;;;;;;;10.38;55.95;98894.84;5084276;28;20193;-72
2021/03/13 09:27:38;;;;;;;17.55;9.25;;;;;;;10.35;55.73;98891.66;5085622;28;20083;-74
2021/03/13 09:30:14;;;;;;;16.83;9.73;;;;;;;10.48;54.92;98890.38;5087501;28;20639;-75
2021/03/13 09:32:45;;;;;;;10.63;7.20;;;;;;;10.54;54.27;98898.72;5086504;28;20108;-73
2021/03/13 09:35:16;;;;;;;18.95;8.88;;;;;;;10.70;53.69;98888.34;5082966;28;20044;-75
2021/03/13 09:37:44;;;;;;;16.50;9.15;;;;;;;11.01;53.40;98880.97;5096635;28;20432;-71
2021/03/13 09:40:17;;;;;;;9.15;6.82;;;;;;;11.25;52.80;98883.06;5108205;28;20074;-78
2021/03/13 09:42:44;;;;;;;9.95;5.22;;;;;;;11.12;51.68;98874.66;5102625;28;20047;-76
2021/03/13 09:45:16;;;;;;;10.07;5.80;;;;;;;11.10;52.43;98876.59;5102810;28;20044;-81
2021/03/13 09:48:06;;;;;;;8.80;6.20;;;;;;;11.21;51.90;98871.09;5100720;28;20063;-80
2021/03/13 09:50:43;;;;;;;10.85;5.55;;;;;;;11.38;51.36;98871.25;5091048;28;20056;-79
2021/03/13 09:53:15;;;;;;;10.52;5.82;;;;;;;11.51;50.71;98871.75;5092812;28;20048;-73
2021/03/13 09:55:48;;;;;;;12.73;5.85;;;;;;;11.38;50.47;98877.41;5110063;28;20515;-73
2021/03/13 09:58:20;;;;;;;10.18;6.82;;;;;;;11.09;50.79;98880.22;5092099;28;20040;-71
2021/03/13 10:00:49;;;;;;;13.23;5.85;;;;;;;11.07;51.20;98879.53;5083791;28;20171;-74
2021/03/13 10:03:19;;;;;;;9.65;5.43;;;;;;;10.96;50.70;98869.19;5081066;28;20115;-72
2021/03/13 10:05:52;;;;;;;12.07;7.57;;;;;;;11.19;50.68;98866.97;5083044;28;20056;-74
2021/03/13 10:08:20;;;;;;;9.00;4.95;;;;;;;11.59;49.29;98873.63;5078799;28;20048;-70
2021/03/13 10:10:51;;;;;;;9.77;5.70;;;;;;;12.14;48.34;98860.19;5083443;28;20048;-73
2021/03/13 10:13:20;;;;;;;9.95;6.32;;;;;;;12.32;47.27;98857.50;5087460;28;20044;-71
2021/03/13 10:15:49;;;;;;;14.15;6.28;;;;;;;12.21;47.33;98865.72;5080950;28;20052;-72
2021/03/13 10:18:16;;;;;;;10.73;7.00;;;;;;;12.21;47.46;98858.59;5080252;28;20082;-75
2021/03/13 10:20:54;;;;;;;13.73;7.05;;;;;;;12.43;46.97;98853.75;5081714;28;20658;-72
2021/03/13 10:23:24;;;;;;;12.55;5.60;;;;;;;12.65;47.23;98851.53;5082866;28;20074;-72
2021/03/13 10:25:56;;;;;;;6.93;5.20;;;;;;;12.71;46.32;98869.44;5076895;28;20048;-72
2021/03/13 10:28:28;;;;;;;9.50;5.75;;;;;;;12.82;46.40;98856.75;5083970;28;20048;-72
2021/03/13 10:31:05;;;;;;;8.73;6.22;;;;;;;12.97;45.26;98856.13;5082595;28;20388;-70
2021/03/13 10:33:36;;;;;;;9.60;4.10;;;;;;;13.11;44.26;98855.50;5085758;28;20594;-71
2021/03/13 10:36:03;;;;;;;9.25;4.53;;;;;;;13.15;44.02;98851.53;5087673;28;20076;-82
2021/03/13 10:38:41;;;;;;;14.48;7.13;;;;;;;13.25;44.14;98848.72;5106329;28;20054;-74
2021/03/13 10:41:12;;;;;;;7.85;5.65;;;;;;;13.35;43.99;98846.78;5103699;28;20043;-72
2021/03/13 10:43:40;;;;;;;11.75;5.55;;;;;;;13.05;43.46;98850.84;5089815;28;20052;-70
2021/03/13 10:46:17;;;;;;;7.82;5.03;;;;;;;12.62;44.83;98842.91;5097701;28;20285;-73
2021/03/13 10:49:04;;;;;;;9.05;5.18;;;;;;;12.37;45.42;98849.91;5100097;28;20043;-75
2021/03/13 10:51:35;;;;;;;7.35;4.20;;;;;;;12.24;45.72;98852.13;5101280;28;20055;-73
2021/03/13 10:54:02;;;;;;;7.60;3.72;;;;;;;12.46;45.62;98853.44;5100793;28;20051;-77
2021/03/13 10:56:43;;;;;;;9.65;5.72;;;;;;;12.38;44.64;98835.66;5102372;28;20605;-75
2021/03/13 10:59:11;;;;;;;12.68;6.68;;;;;;;12.39;44.31;98828.59;5101924;28;20051;-72
2021/03/13 11:01:38;;;;;;;6.75;3.15;;;;;;;12.72;43.73;98829.53;5104859;28;20044;-75
2021/03/13 11:04:06;;;;;;;10.50;4.93;;;;;;;13.05;43.49;98834.94;5104888;28;20059;-74
2021/03/13 11:06:35;;;;;;;8.13;4.90;;;;;;;13.28;42.33;98832.50;5112150;28;20126;-78
2021/03/13 11:09:04;;;;;;;10.20;4.80;;;;;;;13.08;41.24;98821.38;5117646;28;20043;-77
2021/03/13 11:11:42;;;;;;;9.02;4.40;;;;;;;12.71;42.26;98812.00;5116785;28;20051;-75
2021/03/13 11:14:10;;;;;;;15.82;6.60;;;;;;;12.75;42.61;98818.63;5115494;28;20177;-78
2021/03/13 11:16:40;;;;;;;9.13;4.50;;;;;;;13.08;41.78;98826.66;5114568;28;20394;-75
2021/03/13 11:19:07;;;;;;;8.38;3.75;;;;;;;13.35;41.26;98814.97;5111889;28;20481;-74
2021/03/13 11:21:44;;;;;;;4.90;2.65;;;;;;;13.91;40.57;98807.16;5116690;28;20055;-77
2021/03/13 11:24:13;;;;;;;9.23;2.92;;;;;;;14.27;39.61;98822.69;5118655;28;20047;-75
2021/03/13 11:26:46;;;;;;;8.45;3.97;;;;;;;14.39;39.09;98807.22;5113540;28;20051;-83
2021/03/13 11:29:14;;;;;;;9.07;3.80;;;;;;;14.45;39.05;98800.41;5108449;28;20044;-78
2021/03/13 11:31:46;;;;;;;5.90;3.72;;;;;;;14.24;39.00;98799.16;5111421;28;20054;-79
2021/03/13 11:34:13;;;;;;;6.97;3.53;;;;;;;13.89;39.16;98790.56;5116860;27;20078;-77
2021/03/13 11:36:40;;;;;;;9.90;4.70;;;;;;;13.82;39.70;98791.44;5133319;27;20119;-77
2021/03/13 11:39:21;;;;;;;7.43;4.07;;;;;;;13.91;39.80;98782.44;5114454;28;20039;-78
2021/03/13 11:42:19;;;;;;;9.55;4.93;;;;;;;13.75;39.50;98783.31;5115261;28;20047;-81
2021/03/13 11:44:49;;;;;;;7.28;3.03;;;;;;;13.75;39.34;98773.50;5033500;28;20322;-73
2021/03/13 11:47:16;;;;;;;5.68;3.13;;;;;;;14.03;38.75;98767.00;5041600;28;20076;-83